WetterOnline ( https://www.wetteronline.de )

Wetter aktuell Seekopf

Aktuelles Wetter: Freudenstadt (801m)

6-stündlich | Neueste Meldungen
Ortszeit Temperatur Wetter
So, 19.05. 14:00 14.7° C leicht bewölkt
So, 19.05. 8:00 9.6° C bewölkt
So, 19.05. 2:00 8.8° C bedeckt
Sa, 18.05. 20:00 10.1° C Sprühregen
Sa, 18.05. 14:00 14.7° C bewölkt
Sa, 18.05. 8:00 9.0° C wolkenlos
Sa, 18.05. 2:00 8.5° C bedeckt
Fr, 17.05. 20:00 8.3° C leichter Regen
Ortszeit Temperatur Wetter
So, 19.05. 19:30 14.7° C wolkenlos
So, 19.05. 19:20 14.7° C wolkenlos
So, 19.05. 19:10 15.2° C wolkenlos
So, 19.05. 19:00 15.8° C fast wolkenlos
So, 19.05. 18:50 15.8° C fast wolkenlos
So, 19.05. 18:40 15.7° C leicht bewölkt
So, 19.05. 18:30 15.2° C fast wolkenlos
So, 19.05. 18:00 15.5° C leicht bewölkt
So, 19.05. 17:30 15.4° C wolkig
So, 19.05. 17:00 15.1° C leicht bewölkt
So, 19.05. 16:30 16.4° C wolkig
Ortszeit Relative Feuchte Sichtweite
So, 19.05. 14:00 67% >70 km
So, 19.05. 8:00 92% 55 km
So, 19.05. 2:00 95% 24 km
Sa, 18.05. 20:00 93% 45 km
Sa, 18.05. 14:00 57% 55 km
Sa, 18.05. 8:00 91% 40 km
Sa, 18.05. 2:00 92% 50 km
Fr, 17.05. 20:00 93% 14 km
Ortszeit Relative Feuchte Sichtweite
So, 19.05. 19:30 61% >70 km
So, 19.05. 19:20 61% -
So, 19.05. 19:10 61% -
So, 19.05. 19:00 59% >70 km
So, 19.05. 18:50 59% -
So, 19.05. 18:40 61% -
So, 19.05. 18:30 62% >70 km
So, 19.05. 18:00 64% >70 km
So, 19.05. 17:30 58% 60 km
So, 19.05. 17:00 58% >70 km
So, 19.05. 16:30 55% 65 km
Ortszeit Niederschlagsmenge Niederschlagsart
So, 19.05. 14:00 0.1 l/m2 in 6 Std. Regen
So, 19.05. 8:00 0.1 l/m2 in 12 Std. -
So, 19.05. 2:00 0.1 l/m2 in 6 Std. Regen
Sa, 18.05. 20:00 3 l/m2 in 12 Std. Regen
Sa, 18.05. 14:00 0.0 l/m2 in 6 Std. -
Sa, 18.05. 8:00 0.3 l/m2 in 12 Std. -
Sa, 18.05. 2:00 0.3 l/m2 in 6 Std. Regen
Fr, 17.05. 20:00 26 l/m2 in 12 Std. Regen
Ortszeit Niederschlagsmenge Niederschlagsart
So, 19.05. 19:30 0.0 l/m2 in 30 Min -
So, 19.05. 19:20 keine Meldung -
So, 19.05. 19:10 keine Meldung -
So, 19.05. 19:00 0.0 l/m2 in 1 Std. -
So, 19.05. 18:50 keine Meldung -
So, 19.05. 18:40 keine Meldung -
So, 19.05. 18:30 0.0 l/m2 in 30 Min -
So, 19.05. 18:00 0.0 l/m2 in 1 Std. -
So, 19.05. 17:30 0.0 l/m2 in 30 Min -
So, 19.05. 17:00 0.0 l/m2 in 1 Std. -
So, 19.05. 16:30 0.0 l/m2 in 30 Min -
Ortszeit Stärke Spitze Richtung
km/h Bft. km/h Grad Sektor
So, 19.05. 14:00 13 3 30 240° SW
So, 19.05. 8:00 9 2 28 260° W
So, 19.05. 2:00 11 2 40 230° SW
Sa, 18.05. 20:00 22 4 39 270° W
Sa, 18.05. 14:00 11 2 36 290° W
Sa, 18.05. 8:00 18 3 36 230° SW
Sa, 18.05. 2:00 18 3 54 260° W
Fr, 17.05. 20:00 32 5 65 270° W
Ortszeit Stärke Spitze Richtung
km/h Bft. km/h Grad Sektor
So, 19.05. 19:30 14 3 25 290° W
So, 19.05. 19:20 14 3 - 290° W
So, 19.05. 19:10 14 3 - 270° W
So, 19.05. 19:00 11 2 22 260° W
So, 19.05. 18:50 11 2 - 260° W
So, 19.05. 18:40 11 2 - 300° NW
So, 19.05. 18:30 13 3 20 280° W
So, 19.05. 18:00 18 3 32 280° W
So, 19.05. 17:30 17 3 28 280° W
So, 19.05. 17:00 19 3 31 270° W
So, 19.05. 16:30 13 3 26 250° W
Ortszeit Untergrenze Bedeckung Gattung
total tief tief mittel hoch
So, 19.05. 14:00 630 m 3/8 3/8 - - -
So, 19.05. 8:00 150 m 7/8 7/8 - - -
So, 19.05. 2:00 5700 m 8/8 8/8 - - -
Sa, 18.05. 20:00 270 m 7/8 7/8 - - -
Sa, 18.05. 14:00 990 m 7/8 7/8 - - -
Sa, 18.05. 8:00 - 0/8 0/8 - - -
Sa, 18.05. 2:00 300 m 8/8 8/8 - - -
Fr, 17.05. 20:00 330 m 8/8 8/8 - - -
Ortszeit Bedeckungsgrad in Achtel und Wolkenuntergrenze
So, 19.05. 19:30 keine Wolken
So, 19.05. 19:20 keine Wolken
So, 19.05. 19:10 keine Wolken
So, 19.05. 19:00 1(870m)
So, 19.05. 18:50 1(870m)
So, 19.05. 18:40 2
So, 19.05. 18:30 1(7200m)
So, 19.05. 18:00 1(870m) 4(2400m)
So, 19.05. 17:30 1(1110m) 5(2400m) 7(3300m)
So, 19.05. 17:00 2(1020m) 4(2700m)
So, 19.05. 16:30 6(2400m)
Ortszeit Stationsdruck (hPa) Tendenz (hPa in 3 Std.)
So, 19.05. 14:00 921 - 0,3
So, 19.05. 8:00 920 + 0,5
So, 19.05. 2:00 920 - 0,3
Sa, 18.05. 20:00 920 + 0,8
Sa, 18.05. 14:00 921 0,0
Sa, 18.05. 8:00 920 + 0,9
Sa, 18.05. 2:00 919 + 0,5
Fr, 17.05. 20:00 917 + 0,7
Ortszeit Stationsdruck (hPa) Tendenz (hPa in 3 Std.)
So, 19.05. 19:30 920 - 0,1
So, 19.05. 19:20 920 keine Meldung
So, 19.05. 19:10 920 keine Meldung
So, 19.05. 19:00 920 - 0,6
So, 19.05. 18:50 920 keine Meldung
So, 19.05. 18:40 920 keine Meldung
So, 19.05. 18:30 920 - 0,6
So, 19.05. 18:00 920 - 0,6
So, 19.05. 17:30 920 - 0,5
So, 19.05. 17:00 920 - 0,8
So, 19.05. 16:30 920 - 0,9
Ortszeit Schneehöhe (cm)
So, 19.05. 14:00 -
So, 19.05. 8:00 0
So, 19.05. 2:00 0
Sa, 18.05. 20:00 0
Sa, 18.05. 14:00 0
Sa, 18.05. 8:00 0
Sa, 18.05. 2:00 0
Fr, 17.05. 20:00 0
Ortszeit Schneehöhe (cm)
So, 19.05. 19:30 0
So, 19.05. 19:20 0
So, 19.05. 19:10 -
So, 19.05. 19:00 0
So, 19.05. 18:50 0
So, 19.05. 18:40 -
So, 19.05. 18:30 0
So, 19.05. 18:00 0
So, 19.05. 17:30 0
So, 19.05. 17:00 0
So, 19.05. 16:30 0
Link zu dieser Seite / Seite empfehlen

Das Wetter in ...